Time;durP1;ratioP1;P1;durP2;ratioP2;P2;SDS_P1;SDS_P2;PMS_P1;PMS_P2;Temp;Humidity;BMP_temperature;BMP_pressure;BME280_temperature;BME280_humidity;BME280_pressure;Samples;Min_cycle;Max_cycle;Signal;HPM_P1;HPM_P2
2023/12/27 00:00:42;;;;;;;5.00;2.22;;;;;;;;;;5073725;28;20037;-70
2023/12/27 00:03:08;;;;;;;3.78;2.08;;;;;;;;;;5073905;28;20036;-70
2023/12/27 00:05:33;;;;;;;2.83;1.85;;;;;;;;;;5073727;28;20036;-69
2023/12/27 00:07:58;;;;;;;4.20;2.17;;;;;;;;;;5073770;28;20017;-68
2023/12/27 00:10:24;;;;;;;4.25;1.98;;;;;;;;;;5078105;28;20033;-69
2023/12/27 00:12:51;;;;;;;2.95;2.22;;;;;;;;;;5078067;28;20115;-69
2023/12/27 00:15:19;;;;;;;2.83;1.70;;;;;;;;;;5077581;28;20020;-68
2023/12/27 00:17:44;;;;;;;3.35;1.75;;;;;;;;;;5077829;28;20381;-68
2023/12/27 00:20:10;;;;;;;3.70;1.70;;;;;;;;;;5077296;28;20032;-67
2023/12/27 00:22:35;;;;;;;4.47;2.05;;;;;;;;;;5077546;28;20032;-68
2023/12/27 00:25:01;;;;;;;2.40;1.65;;;;;;;;;;5076440;28;20489;-68
2023/12/27 00:27:27;;;;;;;2.65;1.88;;;;;;;;;;5077413;28;20078;-68
2023/12/27 00:29:52;;;;;;;3.25;1.60;;;;;;;;;;5075881;28;20072;-68
2023/12/27 00:32:18;;;;;;;3.08;1.80;;;;;;;;;;5059095;28;20017;-68
2023/12/27 00:34:44;;;;;;;2.83;1.35;;;;;;;;;;5059041;28;20024;-68
2023/12/27 00:37:09;;;;;;;3.72;1.80;;;;;;;;;;5056977;28;20099;-68
2023/12/27 00:39:35;;;;;;;3.20;1.75;;;;;;;;;;5057431;28;20025;-66
2023/12/27 00:42:00;;;;;;;1.35;1.17;;;;;;;;;;5038567;28;20060;-69
2023/12/27 00:44:26;;;;;;;3.17;1.65;;;;;;;;;;5039280;28;20028;-68
2023/12/27 00:46:51;;;;;;;1.60;1.50;;;;;;;;;;5038759;28;20119;-67
2023/12/27 00:49:18;;;;;;;2.20;1.38;;;;;;;;;;5057023;28;20128;-68
2023/12/27 00:51:44;;;;;;;1.77;1.20;;;;;;;;;;5038742;28;20057;-67
2023/12/27 00:54:10;;;;;;;1.42;1.33;;;;;;;;;;5022290;28;20031;-69
2023/12/27 00:56:36;;;;;;;2.40;1.40;;;;;;;;;;5056777;28;20037;-67
2023/12/27 00:59:02;;;;;;;2.28;1.40;;;;;;;;;;5056804;28;20029;-69
2023/12/27 01:01:30;;;;;;;2.28;1.30;;;;;;;;;;5057016;28;20021;-69
2023/12/27 01:03:55;;;;;;;2.08;1.50;;;;;;;;;;5056399;28;20021;-69
2023/12/27 01:06:21;;;;;;;3.35;1.23;;;;;;;;;;5057153;28;20090;-69
2023/12/27 01:08:46;;;;;;;3.38;1.67;;;;;;;;;;5056372;28;20525;-68
2023/12/27 01:11:12;;;;;;;3.85;1.40;;;;;;;;;;5039092;28;20467;-68
2023/12/27 01:13:37;;;;;;;4.25;1.63;;;;;;;;;;5038909;28;20064;-66
2023/12/27 01:16:03;;;;;;;3.58;1.25;;;;;;;;;;5056768;28;20029;-67
2023/12/27 01:18:28;;;;;;;1.80;1.17;;;;;;;;;;5038247;28;20120;-68
2023/12/27 01:20:54;;;;;;;1.65;1.15;;;;;;;;;;5056606;28;20021;-69
2023/12/27 01:23:19;;;;;;;1.50;1.15;;;;;;;;;;5056052;28;20029;-68
2023/12/27 01:25:45;;;;;;;1.42;1.15;;;;;;;;;;5037798;28;20021;-69
2023/12/27 01:28:10;;;;;;;1.98;1.30;;;;;;;;;;5056291;28;20044;-68
2023/12/27 01:30:35;;;;;;;2.03;0.98;;;;;;;;;;5037734;28;20025;-68
2023/12/27 01:33:02;;;;;;;1.00;0.88;;;;;;;;;;5038764;28;20024;-69
2023/12/27 01:35:28;;;;;;;1.70;1.13;;;;;;;;;;5061074;28;20127;-68
2023/12/27 01:37:54;;;;;;;5.53;1.48;;;;;;;;;;5040851;28;20024;-68
2023/12/27 01:40:22;;;;;;;1.98;1.45;;;;;;;;;;5076489;28;20074;-68
2023/12/27 01:42:48;;;;;;;1.52;0.93;;;;;;;;;;5076378;28;20054;-68
2023/12/27 01:45:13;;;;;;;1.65;1.08;;;;;;;;;;5076073;28;20021;-67
2023/12/27 01:47:39;;;;;;;1.20;0.90;;;;;;;;;;5075726;28;20031;-67
2023/12/27 01:50:08;;;;;;;1.55;0.88;;;;;;;;;;5086677;22;20417;-64
2023/12/27 01:52:35;;;;;;;2.38;1.00;;;;;;;;;;5088503;22;20105;-70
2023/12/27 01:55:00;;;;;;;1.60;1.05;;;;;;;;;;5089346;22;20080;-64
2023/12/27 01:57:25;;;;;;;1.65;1.10;;;;;;;;;;5057199;28;20424;-63
2023/12/27 01:59:51;;;;;;;1.35;0.90;;;;;;;;;;5057569;28;20021;-64
2023/12/27 02:02:16;;;;;;;1.23;1.05;;;;;;;;;;5074017;28;20060;-64
2023/12/27 02:04:42;;;;;;;0.75;0.73;;;;;;;;;;5075433;28;20040;-64
2023/12/27 02:07:07;;;;;;;2.97;1.00;;;;;;;;;;5074428;28;20116;-63
2023/12/27 02:09:33;;;;;;;2.00;1.17;;;;;;;;;;5074360;28;20077;-65
2023/12/27 02:11:58;;;;;;;1.42;1.00;;;;;;;;;;5058092;28;20415;-65
2023/12/27 02:14:25;;;;;;;0.60;0.43;;;;;;;;;;5057131;28;20117;-65
2023/12/27 02:16:51;;;;;;;1.15;1.00;;;;;;;;;;5075596;28;20031;-65
2023/12/27 02:19:20;;;;;;;1.20;1.00;;;;;;;;;;5057429;28;20028;-65
2023/12/27 02:21:46;;;;;;;1.70;0.83;;;;;;;;;;5057431;28;20372;-65
2023/12/27 02:24:17;;;;;;;1.35;0.35;;;;;;;;;;5090399;22;20302;-64
2023/12/27 02:26:42;;;;;;;0.88;0.82;;;;;;;;;;5049321;22;20057;-65
2023/12/27 02:29:07;;;;;;;1.13;0.82;;;;;;;;;;5041945;22;20518;-70
2023/12/27 02:31:33;;;;;;;2.67;1.00;;;;;;;;;;5056698;28;20040;-69
2023/12/27 02:33:59;;;;;;;1.52;0.82;;;;;;;;;;5057383;28;20039;-68
2023/12/27 02:36:25;;;;;;;1.27;0.82;;;;;;;;;;5057855;28;20032;-68
2023/12/27 02:38:51;;;;;;;2.42;1.05;;;;;;;;;;5056716;28;20024;-68
2023/12/27 02:41:16;;;;;;;1.13;0.75;;;;;;;;;;5057457;28;20032;-67
2023/12/27 02:43:41;;;;;;;1.48;1.00;;;;;;;;;;5074474;28;20518;-66
2023/12/27 02:46:07;;;;;;;1.83;0.98;;;;;;;;;;5072883;28;20363;-67
2023/12/27 02:48:33;;;;;;;2.08;0.90;;;;;;;;;;5073126;28;20028;-70
2023/12/27 02:50:58;;;;;;;1.95;0.88;;;;;;;;;;5056907;28;20031;-67
2023/12/27 02:53:24;;;;;;;1.35;0.80;;;;;;;;;;5073014;28;20028;-65
2023/12/27 02:55:49;;;;;;;1.75;0.75;;;;;;;;;;5074861;28;20047;-71
2023/12/27 02:58:16;;;;;;;1.58;1.08;;;;;;;;;;5072999;28;20032;-70
2023/12/27 03:00:45;;;;;;;0.55;0.50;;;;;;;;;;5074741;28;20056;-70
2023/12/27 03:03:11;;;;;;;0.75;0.40;;;;;;;;;;5056184;28;20032;-69
2023/12/27 03:05:36;;;;;;;0.57;0.57;;;;;;;;;;5056684;28;20141;-69
2023/12/27 03:08:03;;;;;;;0.93;0.80;;;;;;;;;;5074815;28;20367;-68
2023/12/27 03:10:28;;;;;;;1.13;0.55;;;;;;;;;;5074472;28;20025;-68
2023/12/27 03:12:54;;;;;;;2.08;0.73;;;;;;;;;;5074057;28;20360;-68
2023/12/27 03:15:19;;;;;;;0.77;0.60;;;;;;;;;;5056212;28;20524;-67
2023/12/27 03:17:44;;;;;;;1.10;0.55;;;;;;;;;;5056409;28;20028;-67
2023/12/27 03:20:10;;;;;;;0.60;0.50;;;;;;;;;;5072763;28;20029;-68
2023/12/27 03:22:36;;;;;;;1.55;0.70;;;;;;;;;;5073787;28;20037;-68
2023/12/27 03:25:02;;;;;;;1.00;0.80;;;;;;;;;;5074330;28;20374;-69
2023/12/27 03:27:28;;;;;;;0.70;0.70;;;;;;;;;;5056379;28;20028;-69
2023/12/27 03:29:54;;;;;;;2.95;0.93;;;;;;;;;;5062928;28;20052;-69
2023/12/27 03:32:20;;;;;;;1.25;0.80;;;;;;;;;;5036131;28;20021;-69
2023/12/27 03:34:45;;;;;;;0.88;0.77;;;;;;;;;;5053733;28;20029;-68
2023/12/27 03:37:12;;;;;;;1.25;0.88;;;;;;;;;;5035858;28;20033;-68
2023/12/27 03:39:37;;;;;;;1.25;0.63;;;;;;;;;;5054346;28;20364;-68
2023/12/27 03:42:03;;;;;;;0.50;0.50;;;;;;;;;;5053942;28;20033;-68
2023/12/27 03:44:29;;;;;;;0.95;0.75;;;;;;;;;;5053205;28;20052;-68
2023/12/27 03:46:55;;;;;;;0.60;0.60;;;;;;;;;;5035745;28;20055;-68
2023/12/27 03:49:21;;;;;;;0.93;0.50;;;;;;;;;;5053541;28;20381;-68
2023/12/27 03:51:46;;;;;;;1.20;0.50;;;;;;;;;;5035748;28;20025;-68
2023/12/27 03:54:12;;;;;;;1.15;0.63;;;;;;;;;;5053491;28;20025;-68
2023/12/27 03:56:37;;;;;;;1.80;0.60;;;;;;;;;;5053613;28;20058;-68
2023/12/27 03:59:05;;;;;;;1.58;0.60;;;;;;;;;;5053850;28;20068;-68
2023/12/27 04:01:31;;;;;;;0.73;0.47;;;;;;;;;;5053719;28;20139;-69
2023/12/27 04:03:57;;;;;;;0.70;0.32;;;;;;;;;;5036072;28;20475;-69
2023/12/27 04:06:23;;;;;;;1.77;0.50;;;;;;;;;;5053848;28;20017;-68
2023/12/27 04:08:49;;;;;;;0.65;0.47;;;;;;;;;;5053417;28;20407;-69
2023/12/27 04:11:15;;;;;;;1.40;0.50;;;;;;;;;;5035975;28;20040;-67
2023/12/27 04:13:40;;;;;;;0.52;0.50;;;;;;;;;;5035507;28;20056;-67
2023/12/27 04:16:06;;;;;;;0.93;0.77;;;;;;;;;;5067819;22;20079;-66
2023/12/27 04:18:31;;;;;;;1.02;0.60;;;;;;;;;;5058129;22;1259264;-64
2023/12/27 04:20:57;;;;;;;1.40;0.52;;;;;;;;;;5073651;28;20021;-64
2023/12/27 04:23:22;;;;;;;0.85;0.70;;;;;;;;;;5073189;28;20031;-63
2023/12/27 04:25:48;;;;;;;0.60;0.55;;;;;;;;;;5167374;22;20052;-68
2023/12/27 04:28:13;;;;;;;0.68;0.68;;;;;;;;;;5073084;28;20028;-70
2023/12/27 04:30:39;;;;;;;1.25;0.90;;;;;;;;;;5055185;28;20021;-68
2023/12/27 04:33:04;;;;;;;0.50;0.50;;;;;;;;;;5073094;28;20032;-72
2023/12/27 04:35:30;;;;;;;1.08;0.70;;;;;;;;;;5055089;28;20031;-71
2023/12/27 04:37:57;;;;;;;0.52;0.52;;;;;;;;;;5055096;28;20174;-72
2023/12/27 04:40:22;;;;;;;0.80;0.60;;;;;;;;;;5038398;28;20033;-72
2023/12/27 04:42:48;;;;;;;0.55;0.52;;;;;;;;;;5055052;28;20064;-71
2023/12/27 04:45:14;;;;;;;0.88;0.70;;;;;;;;;;5054936;28;20351;-70
2023/12/27 04:47:39;;;;;;;0.40;0.40;;;;;;;;;;5055124;28;20023;-70
2023/12/27 04:50:06;;;;;;;1.00;0.63;;;;;;;;;;5055258;28;20040;-70
2023/12/27 04:52:34;;;;;;;0.70;0.57;;;;;;;;;;5072992;28;20036;-70
2023/12/27 04:54:59;;;;;;;1.20;1.00;;;;;;;;;;5056642;28;20020;-71
2023/12/27 04:57:25;;;;;;;1.02;0.80;;;;;;;;;;5075811;28;20147;-71
2023/12/27 04:59:50;;;;;;;1.33;0.68;;;;;;;;;;5058599;28;20032;-72
2023/12/27 05:02:18;;;;;;;1.60;0.80;;;;;;;;;;5058400;28;20036;-72
2023/12/27 05:04:45;;;;;;;1.23;0.77;;;;;;;;;;5058437;28;20017;-72
2023/12/27 05:07:11;;;;;;;1.23;0.60;;;;;;;;;;5075731;28;20517;-71
2023/12/27 05:09:36;;;;;;;1.10;0.65;;;;;;;;;;5056891;28;20078;-71
2023/12/27 05:12:03;;;;;;;0.85;0.70;;;;;;;;;;5074373;28;20024;-71
2023/12/27 05:14:28;;;;;;;0.95;0.40;;;;;;;;;;5074262;28;20452;-71
2023/12/27 05:16:55;;;;;;;3.03;0.88;;;;;;;;;;5074490;28;20051;-72
2023/12/27 05:19:20;;;;;;;1.02;0.57;;;;;;;;;;5057491;28;20032;-72
2023/12/27 05:21:46;;;;;;;1.10;0.65;;;;;;;;;;5057220;28;20051;-70
2023/12/27 05:24:11;;;;;;;1.50;0.60;;;;;;;;;;5075693;28;20029;-70
2023/12/27 05:26:37;;;;;;;1.25;0.80;;;;;;;;;;5054597;28;20051;-70
2023/12/27 05:29:02;;;;;;;1.27;0.57;;;;;;;;;;5054700;28;20470;-70
2023/12/27 05:31:27;;;;;;;2.03;0.80;;;;;;;;;;5054725;28;20039;-72
2023/12/27 05:33:53;;;;;;;0.98;0.57;;;;;;;;;;5055699;28;20040;-72
2023/12/27 05:36:18;;;;;;;1.60;0.70;;;;;;;;;;5056095;28;20037;-71
2023/12/27 05:38:43;;;;;;;2.35;0.47;;;;;;;;;;5054433;28;20028;-72
2023/12/27 05:41:09;;;;;;;1.25;0.50;;;;;;;;;;5054593;28;20127;-71
2023/12/27 05:43:34;;;;;;;0.73;0.43;;;;;;;;;;5054234;28;20025;-71
2023/12/27 05:46:00;;;;;;;0.73;0.50;;;;;;;;;;5055219;28;20029;-72
2023/12/27 05:48:25;;;;;;;2.65;0.70;;;;;;;;;;5054733;28;20036;-71
2023/12/27 05:50:50;;;;;;;1.50;0.80;;;;;;;;;;5056222;28;20025;-71
2023/12/27 05:53:16;;;;;;;1.60;0.80;;;;;;;;;;5055654;28;20025;-71
2023/12/27 05:55:41;;;;;;;0.98;0.70;;;;;;;;;;5055860;28;20079;-70
2023/12/27 05:58:07;;;;;;;0.90;0.68;;;;;;;;;;5055362;28;20033;-69
2023/12/27 06:00:33;;;;;;;0.57;0.40;;;;;;;;;;5037531;28;20124;-65
2023/12/27 06:02:58;;;;;;;1.85;0.57;;;;;;;;;;5037347;28;20115;-65
2023/12/27 06:05:24;;;;;;;1.02;0.73;;;;;;;;;;5053690;28;20105;-64
2023/12/27 06:07:50;;;;;;;2.10;0.70;;;;;;;;;;5054730;28;20047;-64
2023/12/27 06:10:16;;;;;;;2.35;0.80;;;;;;;;;;5055492;28;20459;-64
2023/12/27 06:12:41;;;;;;;1.27;0.65;;;;;;;;;;5055011;28;20458;-65
2023/12/27 06:15:07;;;;;;;2.08;0.70;;;;;;;;;;5037403;28;20356;-65
2023/12/27 06:17:34;;;;;;;1.88;0.90;;;;;;;;;;5054922;28;20580;-65
2023/12/27 06:19:59;;;;;;;3.05;0.75;;;;;;;;;;5052798;28;20120;-64
2023/12/27 06:22:24;;;;;;;0.65;0.65;;;;;;;;;;5053990;28;20146;-65
2023/12/27 06:24:50;;;;;;;1.60;0.80;;;;;;;;;;5055014;28;20108;-64
2023/12/27 06:27:15;;;;;;;2.35;0.75;;;;;;;;;;5054597;28;20432;-63
2023/12/27 06:29:41;;;;;;;0.65;0.52;;;;;;;;;;5054890;28;20025;-71
2023/12/27 06:32:07;;;;;;;2.38;0.82;;;;;;;;;;5054627;28;20032;-71
2023/12/27 06:34:33;;;;;;;1.25;0.80;;;;;;;;;;5054361;28;20386;-72
2023/12/27 06:36:58;;;;;;;1.45;0.65;;;;;;;;;;5053466;28;20032;-65
2023/12/27 06:39:24;;;;;;;1.90;0.68;;;;;;;;;;5054261;28;20124;-65
2023/12/27 06:41:50;;;;;;;1.98;0.90;;;;;;;;;;5053975;28;20115;-74
2023/12/27 06:44:15;;;;;;;0.85;0.55;;;;;;;;;;5052627;28;20115;-74
2023/12/27 06:46:40;;;;;;;1.52;0.65;;;;;;;;;;5053545;28;20108;-74
2023/12/27 06:49:06;;;;;;;1.73;0.80;;;;;;;;;;5053778;28;20031;-73
2023/12/27 06:51:31;;;;;;;3.28;0.73;;;;;;;;;;5053679;28;20029;-73
2023/12/27 06:53:57;;;;;;;0.90;0.70;;;;;;;;;;5054103;28;20078;-73
2023/12/27 06:56:22;;;;;;;1.40;0.60;;;;;;;;;;5053122;28;20495;-73
2023/12/27 06:58:48;;;;;;;1.20;0.80;;;;;;;;;;5053948;28;20036;-72
2023/12/27 07:01:16;;;;;;;2.17;0.60;;;;;;;;;;5052545;28;20521;-73
2023/12/27 07:03:42;;;;;;;1.05;0.90;;;;;;;;;;5053479;28;20029;-73
2023/12/27 07:06:07;;;;;;;1.70;0.80;;;;;;;;;;5053658;28;20425;-72
2023/12/27 07:08:33;;;;;;;1.90;0.90;;;;;;;;;;5053872;28;20024;-72
2023/12/27 07:10:58;;;;;;;2.10;1.20;;;;;;;;;;5054068;28;20033;-73
2023/12/27 07:13:24;;;;;;;2.03;0.90;;;;;;;;;;5053853;28;20385;-64
2023/12/27 07:15:49;;;;;;;3.08;0.90;;;;;;;;;;5053792;28;20040;-63
2023/12/27 07:18:15;;;;;;;2.60;1.10;;;;;;;;;;5053969;28;20421;-72
2023/12/27 07:20:41;;;;;;;1.58;0.70;;;;;;;;;;5053499;28;20028;-72
2023/12/27 07:23:06;;;;;;;3.22;1.17;;;;;;;;;;5053550;28;20148;-71
2023/12/27 07:25:32;;;;;;;1.50;1.00;;;;;;;;;;5053731;28;20056;-72
2023/12/27 07:27:57;;;;;;;2.90;1.05;;;;;;;;;;5053214;28;20033;-72
2023/12/27 07:30:24;;;;;;;1.45;0.88;;;;;;;;;;5053375;28;20028;-70
2023/12/27 07:32:49;;;;;;;1.60;1.10;;;;;;;;;;5053562;28;20025;-71
2023/12/27 07:35:14;;;;;;;1.92;1.10;;;;;;;;;;5054005;28;20040;-74
2023/12/27 07:37:41;;;;;;;1.38;0.77;;;;;;;;;;5053972;28;20036;-79
2023/12/27 07:40:07;;;;;;;2.28;1.30;;;;;;;;;;5053791;28;20120;-74
2023/12/27 07:42:32;;;;;;;1.05;0.85;;;;;;;;;;5053523;28;20163;-73
2023/12/27 07:44:59;;;;;;;2.15;1.20;;;;;;;;;;5053867;28;20125;-74
2023/12/27 07:47:24;;;;;;;1.77;1.17;;;;;;;;;;5053785;28;20025;-73
2023/12/27 07:49:51;;;;;;;2.33;1.10;;;;;;;;;;5052450;28;20033;-74
2023/12/27 07:52:17;;;;;;;1.67;1.15;;;;;;;;;;5053797;28;20025;-74
2023/12/27 07:54:43;;;;;;;5.63;1.05;;;;;;;;;;5053678;28;20407;-74
2023/12/27 07:57:08;;;;;;;2.88;1.08;;;;;;;;;;5052524;28;20044;-73
2023/12/27 07:59:33;;;;;;;3.63;1.15;;;;;;;;;;5053716;28;20100;-73
2023/12/27 08:01:59;;;;;;;2.25;1.23;;;;;;;;;;5053336;28;20039;-74
2023/12/27 08:04:25;;;;;;;2.25;1.05;;;;;;;;;;5052730;28;20116;-73
2023/12/27 08:06:51;;;;;;;1.63;1.00;;;;;;;;;;5053751;28;20052;-74
2023/12/27 08:09:18;;;;;;;1.45;1.13;;;;;;;;;;5053707;28;20033;-74
2023/12/27 08:11:43;;;;;;;2.05;1.20;;;;;;;;;;5053631;28;20401;-75
2023/12/27 08:14:09;;;;;;;2.95;1.02;;;;;;;;;;5053667;28;20041;-74
2023/12/27 08:16:34;;;;;;;2.08;1.08;;;;;;;;;;5053290;28;20033;-73
2023/12/27 08:19:00;;;;;;;2.10;1.08;;;;;;;;;;5053589;28;20032;-73
2023/12/27 08:21:26;;;;;;;3.47;1.10;;;;;;;;;;5053679;28;20029;-73
2023/12/27 08:23:51;;;;;;;3.63;1.05;;;;;;;;;;5035228;28;20366;-72
2023/12/27 08:26:17;;;;;;;3.30;1.30;;;;;;;;;;5064889;28;20122;-72
2023/12/27 08:28:42;;;;;;;5.50;1.48;;;;;;;;;;5055260;28;20036;-73
2023/12/27 08:31:09;;;;;;;1.88;1.35;;;;;;;;;;5076964;28;20099;-70
2023/12/27 08:33:37;;;;;;;3.00;1.33;;;;;;;;;;5077122;28;20093;-72
2023/12/27 08:36:02;;;;;;;3.83;1.38;;;;;;;;;;5058815;28;20043;-73
2023/12/27 08:38:28;;;;;;;3.70;1.42;;;;;;;;;;5076925;28;20025;-72
2023/12/27 08:40:54;;;;;;;4.13;1.50;;;;;;;;;;5059208;28;20343;-73
2023/12/27 08:43:20;;;;;;;3.45;1.40;;;;;;;;;;5076693;28;20040;-72
2023/12/27 08:45:48;;;;;;;3.55;1.77;;;;;;;;;;5058413;28;20075;-72
2023/12/27 08:48:13;;;;;;;2.75;1.10;;;;;;;;;;5076000;28;20047;-72
2023/12/27 08:50:40;;;;;;;2.65;1.10;;;;;;;;;;5059084;28;20032;-71
2023/12/27 08:53:06;;;;;;;3.33;1.58;;;;;;;;;;5059071;28;20417;-72
2023/12/27 08:55:31;;;;;;;2.65;1.35;;;;;;;;;;5058658;28;20032;-71
2023/12/27 08:57:57;;;;;;;1.98;1.20;;;;;;;;;;5076636;28;20036;-71
2023/12/27 09:00:22;;;;;;;1.42;1.17;;;;;;;;;;5076490;28;20025;-63
2023/12/27 09:02:48;;;;;;;3.47;1.67;;;;;;;;;;5058443;28;20350;-62
2023/12/27 09:05:13;;;;;;;2.30;1.15;;;;;;;;;;5076417;28;20362;-64
2023/12/27 09:07:38;;;;;;;2.08;0.88;;;;;;;;;;5076413;28;20052;-64
2023/12/27 09:10:04;;;;;;;3.58;1.48;;;;;;;;;;5058517;28;20417;-63
2023/12/27 09:12:29;;;;;;;3.00;1.13;;;;;;;;;;5075749;28;20020;-62
2023/12/27 09:14:55;;;;;;;2.13;1.25;;;;;;;;;;5058426;28;20028;-70
2023/12/27 09:17:20;;;;;;;2.38;1.40;;;;;;;;;;5058340;28;20033;-65
2023/12/27 09:19:46;;;;;;;2.45;1.17;;;;;;;;;;5058180;28;20429;-70
2023/12/27 09:22:11;;;;;;;2.58;1.38;;;;;;;;;;5075907;28;20458;-63
2023/12/27 09:24:37;;;;;;;4.13;1.45;;;;;;;;;;5076818;28;20032;-64
2023/12/27 09:27:03;;;;;;;2.97;1.10;;;;;;;;;;5076348;28;20050;-63
2023/12/27 09:29:30;;;;;;;1.23;0.98;;;;;;;;;;5076168;28;20017;-64
2023/12/27 09:31:55;;;;;;;3.80;1.35;;;;;;;;;;5075819;28;20024;-63
2023/12/27 09:34:21;;;;;;;4.55;1.52;;;;;;;;;;5057844;28;20428;-64
2023/12/27 09:36:46;;;;;;;2.92;1.23;;;;;;;;;;5076003;28;20355;-64
2023/12/27 09:39:13;;;;;;;3.28;1.38;;;;;;;;;;5058479;28;20100;-64
2023/12/27 09:41:39;;;;;;;2.67;1.42;;;;;;;;;;5075040;28;20037;-64
2023/12/27 09:44:07;;;;;;;1.27;1.13;;;;;;;;;;5076283;28;20033;-65
2023/12/27 09:46:33;;;;;;;4.13;1.38;;;;;;;;;;5041547;28;20058;-64
2023/12/27 09:48:58;;;;;;;5.15;1.48;;;;;;;;;;5057680;28;20025;-65
2023/12/27 09:51:24;;;;;;;2.75;1.25;;;;;;;;;;5075625;28;20032;-64
2023/12/27 09:53:50;;;;;;;2.35;1.20;;;;;;;;;;5075656;28;20028;-63
2023/12/27 09:56:16;;;;;;;2.17;1.02;;;;;;;;;;5075043;28;20517;-64
2023/12/27 09:58:42;;;;;;;1.48;0.95;;;;;;;;;;5057675;28;20028;-64
2023/12/27 10:01:09;;;;;;;2.42;1.00;;;;;;;;;;5057688;28;20116;-64
2023/12/27 10:03:35;;;;;;;4.05;1.17;;;;;;;;;;5040780;28;20028;-64
2023/12/27 10:06:21;;;;;;;2.33;1.35;;;;;;;;;;5075647;28;20119;-63
2023/12/27 10:08:46;;;;;;;2.38;1.30;;;;;;;;;;5047107;28;20048;-64
2023/12/27 10:11:11;;;;;;;2.00;1.30;;;;;;;;;;5075336;28;20024;-65
2023/12/27 10:13:38;;;;;;;2.28;1.30;;;;;;;;;;5075486;28;20028;-64
2023/12/27 10:16:04;;;;;;;2.80;1.38;;;;;;;;;;5057314;28;20085;-64
2023/12/27 10:18:30;;;;;;;4.03;1.38;;;;;;;;;;5075101;28;20063;-64
2023/12/27 10:20:55;;;;;;;2.50;1.38;;;;;;;;;;5075156;28;20128;-64
2023/12/27 10:23:21;;;;;;;3.67;1.63;;;;;;;;;;5075039;28;20115;-64
2023/12/27 10:25:47;;;;;;;3.28;1.30;;;;;;;;;;5074808;28;20044;-63
2023/12/27 10:28:12;;;;;;;2.63;1.17;;;;;;;;;;5074909;28;20450;-64
2023/12/27 10:30:38;;;;;;;2.78;1.25;;;;;;;;;;5075175;28;20070;-64
2023/12/27 10:33:04;;;;;;;1.73;1.23;;;;;;;;;;5074810;28;20040;-64
2023/12/27 10:35:35;;;;;;;1.75;1.10;;;;;;;;;;5074694;28;20029;-65
2023/12/27 10:38:03;;;;;;;4.10;1.38;;;;;;;;;;5074705;28;20039;-65
2023/12/27 10:40:29;;;;;;;2.60;1.48;;;;;;;;;;5074682;28;20059;-65
2023/12/27 10:42:54;;;;;;;2.17;1.40;;;;;;;;;;5056868;28;20036;-62
2023/12/27 10:45:21;;;;;;;2.63;1.58;;;;;;;;;;5074732;28;20035;-62
2023/12/27 10:47:47;;;;;;;2.55;1.60;;;;;;;;;;5056599;28;20386;-62
2023/12/27 10:50:15;;;;;;;3.65;1.60;;;;;;;;;;5074513;28;20111;-64
2023/12/27 10:52:41;;;;;;;3.10;1.42;;;;;;;;;;5074344;28;20051;-63
2023/12/27 10:55:08;;;;;;;3.13;1.38;;;;;;;;;;5056682;28;20032;-64
2023/12/27 10:57:35;;;;;;;2.85;1.50;;;;;;;;;;5056722;28;20036;-62
2023/12/27 11:00:03;;;;;;;1.40;1.10;;;;;;;;;;5074414;28;20036;-62
2023/12/27 11:02:29;;;;;;;4.03;1.70;;;;;;;;;;5056502;28;20425;-63
2023/12/27 11:04:55;;;;;;;3.67;1.25;;;;;;;;;;5074213;28;20023;-62
2023/12/27 11:07:21;;;;;;;2.95;1.08;;;;;;;;;;5056295;28;20032;-63
2023/12/27 11:09:51;;;;;;;3.03;1.02;;;;;;;;;;5096072;22;20139;31
2023/12/27 11:12:19;;;;;;;3.08;1.25;;;;;;;;;;4993544;28;20077;-71
2023/12/27 11:14:46;;;;;;;3.10;1.33;;;;;;;;;;4977523;28;20022;-71
2023/12/27 11:17:13;;;;;;;3.15;1.02;;;;;;;;;;4995317;28;20034;-71
2023/12/27 11:19:39;;;;;;;2.13;1.10;;;;;;;;;;5023657;23;20060;-63
2023/12/27 11:22:04;;;;;;;1.92;1.25;;;;;;;;;;5053918;28;20036;-62
2023/12/27 11:24:32;;;;;;;3.95;1.27;;;;;;;;;;5054511;28;20017;-62
2023/12/27 11:27:00;;;;;;;1.70;1.15;;;;;;;;;;5054149;28;20448;-62
2023/12/27 11:29:27;;;;;;;2.08;1.30;;;;;;;;;;5054139;28;20063;-63
2023/12/27 11:31:53;;;;;;;4.35;1.50;;;;;;;;;;5054066;28;20025;-63
2023/12/27 11:34:18;;;;;;;2.63;1.45;;;;;;;;;;5054395;28;20033;-62
2023/12/27 11:36:45;;;;;;;3.03;1.27;;;;;;;;;;5019498;28;20048;-62
2023/12/27 11:39:15;;;;;;;2.30;1.23;;;;;;;;;;5053738;28;20032;-62
2023/12/27 11:41:41;;;;;;;3.45;1.40;;;;;;;;;;5035888;28;20544;-62
2023/12/27 11:44:07;;;;;;;1.85;1.17;;;;;;;;;;5053870;28;20029;-63
2023/12/27 11:46:33;;;;;;;4.68;1.48;;;;;;;;;;5035715;28;20082;-63
2023/12/27 11:48:59;;;;;;;4.43;1.48;;;;;;;;;;5053608;28;20033;-63
2023/12/27 11:51:27;;;;;;;2.85;1.17;;;;;;;;;;5036109;28;20024;-62
2023/12/27 11:53:53;;;;;;;3.70;1.38;;;;;;;;;;5053812;28;20040;-62
2023/12/27 11:56:19;;;;;;;4.68;1.60;;;;;;;;;;5053617;28;20037;-62
2023/12/27 11:58:45;;;;;;;2.10;1.15;;;;;;;;;;5035811;28;20040;-62
2023/12/27 12:07:19;;;;;;;2.45;1.13;;;;;;;;;;5057032;22;20139;-70
2023/12/27 12:09:45;;;;;;;2.38;0.82;;;;;;;;;;5077632;28;20025;-71
2023/12/27 12:12:17;;;;;;;1.92;1.02;;;;;;;;;;5105451;22;20060;-70
2023/12/27 12:14:43;;;;;;;2.38;1.00;;;;;;;;;;5105639;22;20060;-69
2023/12/27 12:17:08;;;;;;;0.90;0.82;;;;;;;;;;5060334;23;20071;-71
2023/12/27 12:19:37;;;;;;;2.60;1.05;;;;;;;;;;5037519;28;20498;-71
2023/12/27 12:22:03;;;;;;;3.65;1.50;;;;;;;;;;5036150;28;20120;-71
2023/12/27 12:24:28;;;;;;;1.95;0.93;;;;;;;;;;5037430;28;20121;-71
2023/12/27 12:26:54;;;;;;;1.80;1.23;;;;;;;;;;5037653;28;20060;-71
2023/12/27 12:29:26;;;;;;;1.98;1.13;;;;;;;;;;5036041;28;20025;-70
2023/12/27 12:31:54;;;;;;;3.45;1.40;;;;;;;;;;5037210;28;20030;-71
2023/12/27 12:34:19;;;;;;;3.67;1.38;;;;;;;;;;5037210;28;20029;-71
2023/12/27 12:36:45;;;;;;;5.53;1.50;;;;;;;;;;5037454;28;20096;-71
2023/12/27 12:39:13;;;;;;;3.58;1.30;;;;;;;;;;5037136;28;20111;-71
2023/12/27 12:41:40;;;;;;;3.00;1.40;;;;;;;;;;5037059;28;20029;-70
2023/12/27 12:44:08;;;;;;;2.50;1.40;;;;;;;;;;5036945;28;20034;-70
2023/12/27 12:46:33;;;;;;;2.53;1.70;;;;;;;;;;5035742;28;20109;-70
2023/12/27 12:48:59;;;;;;;3.63;1.60;;;;;;;;;;5037488;28;20057;-70
2023/12/27 12:51:26;;;;;;;5.15;1.55;;;;;;;;;;5036938;28;20021;-70
2023/12/27 12:53:52;;;;;;;3.20;1.40;;;;;;;;;;5036844;28;20061;-70
2023/12/27 12:56:18;;;;;;;3.10;1.70;;;;;;;;;;5036670;28;20072;-71
2023/12/27 12:58:44;;;;;;;3.00;1.60;;;;;;;;;;5035511;28;20033;-70
2023/12/27 13:01:10;;;;;;;3.97;1.65;;;;;;;;;;5036995;28;20041;-71
2023/12/27 13:03:37;;;;;;;3.70;1.55;;;;;;;;;;5036926;28;20116;-70
2023/12/27 13:06:06;;;;;;;1.40;1.27;;;;;;;;;;5035764;28;20083;-70
2023/12/27 13:08:33;;;;;;;3.10;1.80;;;;;;;;;;5035349;28;20112;-70
2023/12/27 13:10:59;;;;;;;4.47;1.92;;;;;;;;;;5035385;28;20037;-70
2023/12/27 13:13:25;;;;;;;3.58;1.95;;;;;;;;;;5037025;28;20033;-70
2023/12/27 13:15:50;;;;;;;2.65;1.60;;;;;;;;;;5018601;28;20033;-71
2023/12/27 13:18:16;;;;;;;2.75;1.80;;;;;;;;;;5074097;28;20079;-71
2023/12/27 13:20:41;;;;;;;5.85;1.95;;;;;;;;;;5076250;28;20024;-70
2023/12/27 13:23:07;;;;;;;12.15;5.95;;;;;;;;;;5076434;28;20052;-71
2023/12/27 13:25:32;;;;;;;3.78;1.70;;;;;;;;;;5076472;28;20021;-70
2023/12/27 13:30:34;;;;;;;3.65;2.10;;;;;;;;;;5073750;22;20131;-64
2023/12/27 13:33:01;;;;;;;4.90;1.98;;;;;;;;;;5076079;28;20111;-64
2023/12/27 13:35:31;;;;;;;5.05;2.30;;;;;;;;;;5075988;28;20074;-62
2023/12/27 13:37:57;;;;;;;3.38;2.42;;;;;;;;;;5058382;28;20082;-63
2023/12/27 13:40:25;;;;;;;6.00;2.70;;;;;;;;;;5089702;22;20060;-62
2023/12/27 13:42:50;;;;;;;5.35;2.55;;;;;;;;;;5089002;22;20417;-64
2023/12/27 13:45:16;;;;;;;3.72;2.20;;;;;;;;;;5075825;28;20024;-62
2023/12/27 13:47:41;;;;;;;6.22;3.00;;;;;;;;;;5057863;28;20024;-63
2023/12/27 13:50:07;;;;;;;5.05;3.70;;;;;;;;;;5076020;28;20024;-63
2023/12/27 13:52:32;;;;;;;5.22;3.42;;;;;;;;;;5076571;28;20032;-64
2023/12/27 13:54:58;;;;;;;5.68;3.20;;;;;;;;;;5075676;28;20032;-65
2023/12/27 13:57:23;;;;;;;8.02;3.72;;;;;;;;;;5057755;28;20032;-63
2023/12/27 13:59:55;;;;;;;5.45;3.00;;;;;;;;;;5075805;28;20051;-63
2023/12/27 14:02:20;;;;;;;5.97;2.88;;;;;;;;;;5075440;28;20036;-63
2023/12/27 14:04:49;;;;;;;4.50;3.05;;;;;;;;;;5075454;28;20023;-63
2023/12/27 14:07:15;;;;;;;5.50;2.85;;;;;;;;;;5075402;28;20069;-67
2023/12/27 14:09:40;;;;;;;6.20;3.13;;;;;;;;;;5075325;28;20416;-65
2023/12/27 14:12:06;;;;;;;7.20;3.67;;;;;;;;;;5074284;28;20027;-65
2023/12/27 14:14:32;;;;;;;13.23;6.82;;;;;;;;;;5074174;28;20036;-66
2023/12/27 14:16:57;;;;;;;20.27;8.63;;;;;;;;;;5074080;28;20039;-66
2023/12/27 14:19:22;;;;;;;22.33;8.98;;;;;;;;;;5056409;28;20028;-67
2023/12/27 14:21:48;;;;;;;9.98;4.85;;;;;;;;;;5056136;28;20028;-66
2023/12/27 14:24:13;;;;;;;6.45;3.38;;;;;;;;;;5055896;28;20488;-67
2023/12/27 14:26:39;;;;;;;4.70;2.63;;;;;;;;;;5055666;28;20039;-66
2023/12/27 14:29:05;;;;;;;5.70;2.67;;;;;;;;;;5072557;28;20458;-66
2023/12/27 14:31:30;;;;;;;4.07;2.30;;;;;;;;;;5056393;28;20089;-68
2023/12/27 14:33:56;;;;;;;5.32;2.47;;;;;;;;;;5073862;28;20465;-67
2023/12/27 14:36:21;;;;;;;5.93;2.45;;;;;;;;;;5073856;28;20028;-68
2023/12/27 14:38:51;;;;;;;4.05;2.15;;;;;;;;;;5074065;28;20028;-66
2023/12/27 14:41:20;;;;;;;4.60;2.50;;;;;;;;;;5055841;28;20033;-66
2023/12/27 14:43:48;;;;;;;4.70;2.78;;;;;;;;;;5055958;28;20089;-67